KBBW/BBW METAR and TAF weather

Enter ICAO airport designator
Station Type Date Time Source
KBBW METAR 2018/01/22 11:53 UTC NOAA

KBBW 221153Z AUTO 35027G37KT 1 3/4SM BR OVC012 M02/M03 A2972 RMK AO2 PK WND 35039/1119 SLP087 60008 70024 T10171033 10000 21017 53015 PWINO FZRANO $


Station Type Date Time Source
KBBW Decoded METAR 2018/01/22 11:53 UTC NOAA

BROKEN BOW MUNICIPAL AIRPORT, NE, United States (KBBW) 41-26N 099-38W
Jan 22, 2018 - 06:53 AM EST / 2018.01.22 1153 UTC
Wind: from the N (350 degrees) at 31 MPH (27 KT) gusting to 43 MPH (37 KT):0
Visibility: 1 3/4 mile(s):0
Sky conditions: overcast
Weather: mist
Temperature: 28.9 F (-1.7 C)
Windchill: 14 F (-10 C):1
Dew Point: 26.1 F (-3.3 C)
Relative Humidity: 88%
Pressure (altimeter): 29.72 in. Hg (1006 hPa)
Pressure tendency: 0.04 inches (1.5 hPa) higher than three hours ago
ob: KBBW 221153Z AUTO 35027G37KT 1 3/4SM BR OVC012 M02/M03 A2972 RMK AO2 PK WND 35039/1119 SLP087 60008 70024 T10171033 10000 21017 53015 PWINO FZRANO
cycle: 12

Station Type Date Time Source
KBBW TAF UTC NOAA

Error!


Example: see airport list